KPOF

Poplar Bluff Municipal Airport

Poplar Bluff, Missouri, USA
METAR KPOF 200453Z AUTO 20007KT 10SM CLR 26/21 A2993 RMK AO2 SLP129 T02560206
Observed Flight Rules
Jun-20 @ 04:53 UTC (47 minutes ago) Visual Flight Rules
Wind Visibility Clouds
200° at 7 knots 10 miles
  • Clear skies
Temperatures Readings
Current 26°C / 79°F
Dewpoint 21°C / 70°F
Humidity 74%
Altimeter 29.93" Hg
Pressure 1012.9 hPa
Elevation 99
METAR KPOF 200453Z AUTO 20007KT 10SM CLR 26/21 A2993 RMK AO2 SLP129 T02560206
Observed Flight Rules
Jun-20 @ 04:53 UTC
(47 minutes ago)
VFR
Wind Visibility
200° at 7 knots 10 miles
Clouds
  • Clear skies
Temperature Dewpoint
26°C / 79°F 21°C / 70°F
Humidity Altimeter Pressure
74% 29.93" Hg 1012.9 hPa